Austinburg, Pennsylvania
Current Conditions -  °F | °C
As of 10:55 PM on Wednesday 22 Oct 2014 (Local Time) from KN38 Reporting Station
Overcast Overcast  
Wind Chill: 34°   Ceiling: 500
Heat Index: 43°   Visibility: 9mi
Dew Point: 43°   Wind: 23mph
Humidity: 100%   Direction: 350°N
Pressure: 30.05"   Gusts: 35mph
Location:  41.9659°N, 77.4284°W
Report Text: KN38 230255Z AUTO 35020G30KT 9SM OVC005 06/06 A3005 RMK AO2
Loading
Personal Weather Stations






























Interactive Weather Map
Tropical Storm Tracking
New forecast layout! Learn more

10-Day Weather Forecast

Advertisements
Track Severe Weather on mobile